TAF EHPG
METAR EHPG
EHPG 280855Z AUTO 36025G35KT 270V060 9999 FEW027 SCT033 BKN038 08/00 Q0999=
EHPG 280825Z AUTO 36017G30KT 280V080 9999 FEW026 SCT029 BKN043 08/02 Q0998 REDZ=
EHPG 280755Z AUTO 35028G40KT 310V040 9999 -RA FEW018 SCT032 BKN045 07/02 Q0998=
EHPG 280725Z AUTO 02022KT 330V070 9999 DZ FEW016 SCT026 BKN031 07/03 Q0998=
EHPG 280655Z AUTO 36018KT 290V090 9999 FEW015CB SCT017 BKN029 07/03 Q0998=
WC EHPG
WS EHPG
WV EHPG